Rogersville, TN (37857)

6:37 PM EDT on August 04, 2015 (GMT -0400)
Rogersville, TN | | Change Station
CLOSE
Current Station
Personal Weather Station
Location: Rogersville, TN
Elevation: 1345 ft
Nearby Weather Stations

Elev 1345 ft 36.40 °N, 83.03 °W | Updated 14 seconds ago

Mostly Cloudy
Mostly Cloudy
78.0 °F
Feels Like 81 °F
N
2.0
Wind Variable Wind from NE
Gusts 7.0 mph

Today
High -- | Low -- °F
--% Chance of Precip.
Yesterday
High -- | Low -- °F
Precip. -- in
6:40 AM 8:35 PM
Waning Gibbous, 74% visible
Pressure 30.08 in
Visibility 1.0 miles
Clouds Scattered Clouds 3800 ft
Mostly Cloudy 5000 ft
Overcast 8000 ft
Heat Index 81 °F
Dew Point 75 °F
Humidity 91%
Rainfall 0.00 in
Snow Depth Not available.
UV 1 out of 12
Pollen 5.40 out of 12
Air Quality Not available.
Flu Activity Not available.
SPECI KTRI 042229Z 28016G24KT 1SM +TSRA SCT038CB BKN050 OVC080 22/18 A3008 RMK AO2 PK WND 31029/2214 TWR VIS 2 RAB16 PRESRR FRQ LTGICCG OHD TS OHD MOV SE P0005 T02220183

More Conditions Fewer Conditions

Pressure 30.08 in
Visibility 1.0 miles
Clouds Scattered Clouds 3800 ft
Mostly Cloudy 5000 ft
Overcast 8000 ft
Heat Index 81 °F
Dew Point 75 °F
Humidity 91%
Rainfall 0.00 in
Snow Depth Not available.
UV 1 out of 12
Pollen 5.40 out of 12
Air Quality Not available.
Flu Activity Not available.
SPECI KTRI 042229Z 28016G24KT 1SM +TSRA SCT038CB BKN050 OVC080 22/18 A3008 RMK AO2 PK WND 31029/2214 TWR VIS 2 RAB16 PRESRR FRQ LTGICCG OHD TS OHD MOV SE P0005 T02220183

More Conditions Fewer Conditions

10-Day Weather Forecast

×

Almanac

Astronomy

Aug. 04, 2015 Rise Set
Actual Time
Civil Twilight
Nautical Twilight
Astronomical Twilight
Moon
Length of Visible Light
Length of Day
Tomorrow will be .
, % of the Moon is Illuminated

Today's Extremes

State Highs State Lows

Community

WunderPhotos

Upload Photos

1,844,007 photos uploaded!

WunderBlogs® & News

Nearby

Air Quality

  Air Quality AQ Index Pollutant
Not available.

Snow Depth

Station Depth Elevation

Earthquake Activity

City Distance Mag. Time & Date
Minimum magnitude displayed is 2.5.

Coastal Water Temperatures

Place Temperature

Stations

Nearby Weather Stations

Station Location Temp. Windchill Dew Point Humidity Wind Precip. Elev Updated Type